createdAt,value
2017-11-10T00:00:16.951Z,22.3
2017-11-10T00:02:16.777Z,23.2
2017-11-10T00:04:16.617Z,23.3
2017-11-10T00:06:17.439Z,21.7
2017-11-10T00:08:17.276Z,22.6
2017-11-10T00:10:17.108Z,22.3
2017-11-10T00:12:16.928Z,23
2017-11-10T00:14:16.761Z,22.5
2017-11-10T00:16:17.585Z,22.7
2017-11-10T00:18:18.409Z,24.4
2017-11-10T00:20:17.228Z,23.1
2017-11-10T00:22:17.067Z,21.3
2017-11-10T00:24:16.890Z,22.5
2017-11-10T00:26:17.738Z,23
2017-11-10T00:28:16.550Z,21.8
2017-11-10T00:30:17.379Z,21.6
2017-11-10T00:32:17.222Z,22.2
2017-11-10T00:34:21.042Z,22.8
2017-11-10T00:36:16.857Z,22.6
2017-11-10T00:38:16.687Z,22.9
2017-11-10T00:40:17.497Z,22.4
2017-11-10T00:42:17.315Z,23.3
2017-11-10T00:44:17.148Z,21.2
2017-11-10T00:46:16.963Z,20.8
2017-11-10T00:48:16.783Z,22.4
2017-11-10T00:50:16.606Z,21.3
2017-11-10T00:52:21.405Z,21.4
2017-11-10T00:54:17.227Z,22.3
2017-11-10T00:56:17.045Z,22.5
2017-11-10T00:58:17.851Z,21.6
2017-11-10T01:00:16.667Z,22.2
2017-11-10T01:02:17.483Z,22.5
2017-11-10T01:04:17.302Z,22.2
2017-11-10T01:06:18.118Z,22.9
2017-11-10T01:08:16.922Z,22.6
2017-11-10T01:10:17.739Z,21.7
2017-11-10T01:12:16.550Z,24
2017-11-10T01:14:17.359Z,22.5
2017-11-10T01:16:17.195Z,21.1
2017-11-10T01:18:18.020Z,21.5
2017-11-10T01:20:16.840Z,22.3
2017-11-10T01:22:16.670Z,23.1
2017-11-10T01:24:21.445Z,20.7
2017-11-10T01:26:18.264Z,20.2
2017-11-10T01:28:21.080Z,20.7
2017-11-10T01:30:16.898Z,21.9
2017-11-10T01:32:16.746Z,21.4
2017-11-10T01:34:16.533Z,21.6
2017-11-10T01:36:17.354Z,19.6
2017-11-10T01:38:21.141Z,20.9
2017-11-10T01:40:17.971Z,19.4
2017-11-10T01:42:16.774Z,20.6
2017-11-10T01:44:16.573Z,20.5
2017-11-10T01:46:17.386Z,20.8
2017-11-10T01:48:17.197Z,19.4
2017-11-10T01:50:20.998Z,19.8
2017-11-10T01:52:16.851Z,20.5
2017-11-10T01:54:20.618Z,20.5
2017-11-10T01:56:17.443Z,19.2
2017-11-10T01:58:17.252Z,17.8
2017-11-10T02:00:17.055Z,17.4
2017-11-10T02:02:16.871Z,18.7
2017-11-10T02:04:16.666Z,16.3
2017-11-10T02:06:17.492Z,17.3
2017-11-10T02:08:17.299Z,19.1
2017-11-10T02:10:17.097Z,17.9
2017-11-10T02:12:17.915Z,16.5
2017-11-10T02:14:20.693Z,18.2
2017-11-10T02:16:17.513Z,16.8
2017-11-10T02:18:18.314Z,16.6
2017-11-10T02:20:21.088Z,15.8
2017-11-10T02:22:16.919Z,16.6
2017-11-10T02:24:16.761Z,15.7
2017-11-10T02:26:17.516Z,16.8
2017-11-10T02:28:17.331Z,15.6
2017-11-10T02:30:21.105Z,16.2
2017-11-10T02:32:16.918Z,15
2017-11-10T02:34:20.696Z,15.7
2017-11-10T02:36:17.511Z,15.8
2017-11-10T02:38:17.332Z,14
2017-11-10T02:40:17.152Z,15.8
2017-11-10T02:42:16.962Z,13.9
2017-11-10T02:44:16.778Z,16.4
2017-11-10T02:46:17.605Z,15.3
2017-11-10T02:48:18.390Z,15.1
2017-11-10T02:50:17.202Z,15.5
2017-11-10T02:52:21.000Z,15.3
2017-11-10T02:54:16.849Z,13.3
2017-11-10T02:56:17.633Z,15.3
2017-11-10T02:58:21.396Z,15
2017-11-10T03:00:17.210Z,15.6
2017-11-10T03:02:17.005Z,15.5
2017-11-10T03:04:16.815Z,15.6
2017-11-10T03:06:17.600Z,14.1
2017-11-10T03:08:17.403Z,14.8
2017-11-10T03:10:17.194Z,15.1
2017-11-10T03:12:17.003Z,14.7
2017-11-10T03:14:20.789Z,14.9
2017-11-10T03:16:16.586Z,14.9
2017-11-10T03:18:18.378Z,14.4
2017-11-10T03:20:18.171Z,14.2
2017-11-10T03:22:16.987Z,13.7
2017-11-10T03:24:20.769Z,14.2
2017-11-10T03:26:17.572Z,13.5
2017-11-10T03:28:17.477Z,13.9
2017-11-10T03:30:18.173Z,13.8
2017-11-10T03:32:20.946Z,14.5
2017-11-10T03:34:16.760Z,14.7
2017-11-10T03:36:17.544Z,13
2017-11-10T03:38:17.347Z,13.7
2017-11-10T03:40:17.123Z,14
2017-11-10T03:42:16.934Z,13.9
2017-11-10T03:44:16.730Z,13
2017-11-10T03:46:17.515Z,14.4
2017-11-10T03:48:17.324Z,13.8
2017-11-10T03:50:17.130Z,13.5
2017-11-10T03:52:20.913Z,13.9
2017-11-10T03:54:16.736Z,13.1
2017-11-10T03:56:17.534Z,14.1
2017-11-10T03:58:17.338Z,13.4
2017-11-10T04:00:18.140Z,14
2017-11-10T04:02:16.961Z,14.3
2017-11-10T04:04:16.762Z,14
2017-11-10T04:06:17.574Z,13.5
2017-11-10T04:08:21.350Z,14.8
2017-11-10T04:10:17.149Z,14
2017-11-10T04:12:20.929Z,14.4
2017-11-10T04:14:20.737Z,14.3
2017-11-10T04:16:17.514Z,15.2
2017-11-10T04:18:18.315Z,13.9
2017-11-10T04:20:21.098Z,16.1
2017-11-10T04:22:20.894Z,14.4
2017-11-10T04:24:20.667Z,15.7
2017-11-10T04:26:17.465Z,14.4
2017-11-10T04:28:21.237Z,16
2017-11-10T04:30:18.031Z,16.9
2017-11-10T04:32:16.837Z,15.8
2017-11-10T04:34:16.618Z,16.8
2017-11-10T04:36:17.406Z,15.5
2017-11-10T04:38:17.205Z,16.9
2017-11-10T04:40:18.002Z,16.2
2017-11-10T04:42:20.753Z,16
2017-11-10T04:44:16.561Z,15.6
2017-11-10T04:46:17.344Z,15.6
2017-11-10T04:48:18.115Z,15.9
2017-11-10T04:50:20.882Z,16.1
2017-11-10T04:52:16.687Z,15.4
2017-11-10T04:54:17.483Z,15.2
2017-11-10T04:56:17.262Z,15.3
2017-11-10T04:58:21.031Z,16.5
2017-11-10T05:00:20.818Z,15.4
2017-11-10T05:02:20.605Z,16.1
2017-11-10T05:04:17.409Z,15.1
2017-11-10T05:06:17.189Z,15.5
2017-11-10T05:08:20.973Z,15.6
2017-11-10T05:10:17.775Z,15.3
2017-11-10T05:12:16.566Z,14.7
2017-11-10T05:14:17.379Z,16.1
2017-11-10T05:16:18.157Z,14.6
2017-11-10T05:18:17.952Z,15.2
2017-11-10T05:20:16.769Z,14.9
2017-11-10T05:22:16.570Z,16
2017-11-10T05:24:21.352Z,15
2017-11-10T05:26:17.184Z,14.2
2017-11-10T05:28:16.980Z,15.8
2017-11-10T05:30:16.788Z,14.2
2017-11-10T05:32:16.604Z,14.4
2017-11-10T05:34:18.409Z,14.3
2017-11-10T05:36:18.211Z,14.3
2017-11-10T05:38:17.023Z,15.3
2017-11-10T05:40:17.837Z,14.8
2017-11-10T05:42:20.630Z,15.8
2017-11-10T05:44:17.435Z,15.8
2017-11-10T05:46:17.250Z,13.6
2017-11-10T05:48:21.034Z,14.5
2017-11-10T05:50:16.856Z,15.7
2017-11-10T05:52:16.666Z,15.4
2017-11-10T05:54:17.473Z,15.3
2017-11-10T05:56:17.281Z,15.1
2017-11-10T05:58:17.119Z,16
2017-11-10T06:00:20.903Z,14.7
2017-11-10T06:02:16.742Z,14.8
2017-11-10T06:04:16.533Z,15.2
2017-11-10T06:06:17.342Z,16.3
2017-11-10T06:08:17.150Z,14.6
2017-11-10T06:10:17.953Z,14.9
2017-11-10T06:12:16.766Z,15.2
2017-11-10T06:14:16.578Z,16.1
2017-11-10T06:16:17.374Z,15
2017-11-10T06:18:18.175Z,14.2
2017-11-10T06:20:17.998Z,14.6
2017-11-10T06:22:20.783Z,15.6
2017-11-10T06:24:16.608Z,14.6
2017-11-10T06:26:17.422Z,15.5
2017-11-10T06:28:17.236Z,14.8
2017-11-10T06:30:17.048Z,14.7
2017-11-10T06:32:16.858Z,15.5
2017-11-10T06:34:16.665Z,15.6
2017-11-10T06:36:17.468Z,13.4
2017-11-10T06:38:17.286Z,15.9
2017-11-10T06:40:17.093Z,14.9
2017-11-10T06:42:16.905Z,14.5
2017-11-10T06:44:16.739Z,15.1
2017-11-10T06:46:17.520Z,14.4
2017-11-10T06:48:17.335Z,15.2
2017-11-10T06:50:18.125Z,15.4
2017-11-10T06:52:16.929Z,15.4
2017-11-10T06:54:16.737Z,15.4
2017-11-10T06:56:17.534Z,13.2
2017-11-10T06:58:21.326Z,15.4
2017-11-10T07:00:21.139Z,15.5
2017-11-10T07:02:20.942Z,15
2017-11-10T07:04:16.755Z,15.6
2017-11-10T07:06:16.563Z,14.5
2017-11-10T07:08:17.365Z,14
2017-11-10T07:10:17.172Z,13.5
2017-11-10T07:12:16.978Z,15.4
2017-11-10T07:14:16.786Z,14.9
2017-11-10T07:16:17.603Z,15.9
2017-11-10T07:18:18.392Z,14.7
2017-11-10T07:20:17.202Z,14.3
2017-11-10T07:22:16.997Z,14
2017-11-10T07:24:16.787Z,15.2
2017-11-10T07:26:17.590Z,14.5
2017-11-10T07:28:17.371Z,14.2
2017-11-10T07:30:21.147Z,12.7
2017-11-10T07:32:16.965Z,14.6
2017-11-10T07:34:16.750Z,14.2
2017-11-10T07:36:17.535Z,13.3
2017-11-10T07:38:17.331Z,13.3
2017-11-10T07:40:17.117Z,14.1
2017-11-10T07:42:16.907Z,14.3
2017-11-10T07:44:16.710Z,13.6
2017-11-10T07:46:17.481Z,13.2
2017-11-10T07:48:17.275Z,14.4
2017-11-10T07:50:18.051Z,13.8
2017-11-10T07:52:16.835Z,13.6
2017-11-10T07:54:16.625Z,14.2
2017-11-10T07:56:17.417Z,13.6
2017-11-10T07:58:17.207Z,14.4
2017-11-10T08:00:20.994Z,13.1
2017-11-10T08:02:16.790Z,14.3
2017-11-10T08:04:16.597Z,13.2
2017-11-10T08:06:17.374Z,13.5
2017-11-10T08:08:17.175Z,14.3
2017-11-10T08:10:17.971Z,13
2017-11-10T08:12:16.763Z,13.2
2017-11-10T08:14:16.556Z,13.2
2017-11-10T08:16:17.353Z,14.5
2017-11-10T08:18:18.142Z,13.6
2017-11-10T08:20:16.953Z,12.1
2017-11-10T08:22:16.744Z,13.2
2017-11-10T08:24:16.535Z,13.6
2017-11-10T08:26:17.339Z,14.1
2017-11-10T08:28:17.121Z,13.8
2017-11-10T08:30:20.899Z,13.9
2017-11-10T08:32:16.713Z,13.6
2017-11-10T08:34:17.505Z,13.7
2017-11-10T08:36:17.312Z,13.2
2017-11-10T08:38:17.102Z,13.1
2017-11-10T08:40:17.893Z,12.7
2017-11-10T08:42:16.698Z,11.5
2017-11-10T08:44:17.474Z,11.8
2017-11-10T08:46:17.283Z,11.3
2017-11-10T08:48:17.072Z,11.2
2017-11-10T08:50:17.864Z,11.5
2017-11-10T08:52:16.661Z,12
2017-11-10T08:54:17.447Z,12.3
2017-11-10T08:56:18.242Z,12.7
2017-11-10T08:58:17.051Z,11.2
2017-11-10T09:00:16.869Z,12.6
2017-11-10T09:02:16.662Z,11.3
2017-11-10T09:04:17.461Z,11.8
2017-11-10T09:06:18.271Z,10.9
2017-11-10T09:08:17.095Z,10.5
2017-11-10T09:10:17.891Z,10.6
2017-11-10T09:12:16.709Z,10.7
2017-11-10T09:14:17.513Z,10.6
2017-11-10T09:16:17.325Z,11
2017-11-10T09:18:21.120Z,10.5
2017-11-10T09:20:16.951Z,10.6
2017-11-10T09:22:16.764Z,10.1
2017-11-10T09:24:16.586Z,9.8
2017-11-10T09:26:17.382Z,9.3
2017-11-10T09:28:17.200Z,9.8
2017-11-10T09:30:17.020Z,10.3
2017-11-10T09:32:16.838Z,9.3
2017-11-10T09:34:16.654Z,9.5
2017-11-10T09:36:17.448Z,9
2017-11-10T09:38:17.267Z,9.3
2017-11-10T09:40:18.072Z,10.1
2017-11-10T09:42:16.873Z,9.5
2017-11-10T09:44:16.689Z,9.9
2017-11-10T09:46:17.498Z,8.9
2017-11-10T09:48:17.315Z,8.8
2017-11-10T09:50:18.118Z,8.8
2017-11-10T09:52:16.940Z,9.6
2017-11-10T09:54:16.751Z,7.9
2017-11-10T09:56:17.573Z,9.3
2017-11-10T09:58:17.352Z,8.9
2017-11-10T10:00:17.167Z,8.6
2017-11-10T10:02:16.977Z,8.1
2017-11-10T10:04:16.786Z,9.3
2017-11-10T10:06:17.575Z,8.9
2017-11-10T10:08:17.378Z,9.7
2017-11-10T10:10:17.176Z,8.8
2017-11-10T10:12:16.979Z,9.2
2017-11-10T10:14:16.768Z,9.9
2017-11-10T10:16:17.577Z,9.3
2017-11-10T10:18:21.363Z,9.2
2017-11-10T10:20:17.185Z,9.4
2017-11-10T10:22:17.009Z,9.1
2017-11-10T10:24:16.814Z,9
2017-11-10T10:26:17.613Z,9
2017-11-10T10:28:17.416Z,9.2
2017-11-10T10:30:17.216Z,9.6
2017-11-10T10:32:17.029Z,8.8
2017-11-10T10:34:16.838Z,8.3
2017-11-10T10:36:17.644Z,9.3
2017-11-10T10:38:17.455Z,9.3
2017-11-10T10:40:17.266Z,9.1
2017-11-10T10:42:17.080Z,9.5
2017-11-10T10:44:16.911Z,9
2017-11-10T10:46:17.723Z,8.2
2017-11-10T10:48:16.553Z,8.3
2017-11-10T10:50:17.342Z,8.5
2017-11-10T10:52:17.163Z,7.9
2017-11-10T10:54:16.975Z,8.5
2017-11-10T10:56:17.804Z,8.3
2017-11-10T10:58:16.627Z,8.8
2017-11-10T11:00:17.439Z,7.8
2017-11-10T11:02:17.280Z,8.3
2017-11-10T11:04:17.113Z,8
2017-11-10T11:06:16.948Z,8.2
2017-11-10T11:08:16.775Z,7.8
2017-11-10T11:10:17.608Z,7.2
2017-11-10T11:12:17.432Z,8
2017-11-10T11:14:17.262Z,7.7
2017-11-10T11:16:17.097Z,8
2017-11-10T11:18:20.896Z,7
2017-11-10T11:20:16.734Z,7.1
2017-11-10T11:22:16.564Z,6.8
2017-11-10T11:24:17.378Z,6.8
2017-11-10T11:26:18.200Z,6.5
2017-11-10T11:28:17.038Z,6.5
2017-11-10T11:30:16.859Z,6
2017-11-10T11:32:16.695Z,6.7
2017-11-10T11:34:17.513Z,6.3
2017-11-10T11:36:17.331Z,6.1
2017-11-10T11:38:17.142Z,6
2017-11-10T11:40:17.974Z,5.8
2017-11-10T11:42:16.800Z,6.1
2017-11-10T11:44:16.624Z,5.8
2017-11-10T11:46:17.447Z,5.4
2017-11-10T11:48:17.283Z,4.9
2017-11-10T11:50:17.097Z,5.9
2017-11-10T11:52:16.922Z,5.6
2017-11-10T11:54:16.760Z,6.3
2017-11-10T11:56:17.586Z,6.3
2017-11-10T11:58:17.419Z,5.3
2017-11-10T12:00:17.244Z,6
2017-11-10T12:02:17.069Z,5.3
2017-11-10T12:04:16.904Z,6.2
2017-11-10T12:06:17.711Z,5.5
2017-11-10T12:08:17.527Z,5.8
2017-11-10T12:10:17.328Z,5.4
2017-11-10T12:12:17.141Z,6.3
2017-11-10T12:14:16.951Z,5.9
2017-11-10T12:16:17.761Z,6.3
2017-11-10T12:18:17.555Z,5
2017-11-10T12:20:17.366Z,5.4
2017-11-10T12:22:17.185Z,5.7
2017-11-10T12:24:17.002Z,6
2017-11-10T12:26:17.804Z,5.2
2017-11-10T12:28:16.620Z,5.3
2017-11-10T12:30:21.398Z,6.3
2017-11-10T12:32:17.223Z,5.7
2017-11-10T12:34:17.027Z,6.4
2017-11-10T12:36:16.855Z,6.1
2017-11-10T12:38:16.656Z,6.4
2017-11-10T12:40:17.454Z,6.7
2017-11-10T12:42:17.262Z,5.9
2017-11-10T12:44:17.069Z,6.4
2017-11-10T12:46:17.867Z,6.5
2017-11-10T12:48:16.662Z,6.7
2017-11-10T12:50:17.467Z,6.2
2017-11-10T12:52:17.279Z,7.3
2017-11-10T12:54:17.067Z,6.9
2017-11-10T12:56:16.880Z,6.8
2017-11-10T12:58:16.711Z,6.5
2017-11-10T13:00:21.495Z,6.5
2017-11-10T13:02:17.324Z,6.5
2017-11-10T13:04:17.129Z,6.2
2017-11-10T13:06:17.938Z,5.8
2017-11-10T13:08:16.760Z,5.8
2017-11-10T13:10:17.543Z,5.4
2017-11-10T13:12:17.349Z,6.2
2017-11-10T13:14:17.156Z,6
2017-11-10T13:16:17.967Z,5.5
2017-11-10T13:18:17.771Z,5.3
2017-11-10T13:20:16.575Z,5.4
2017-11-10T13:22:17.379Z,4.9
2017-11-10T13:24:17.181Z,5.5
2017-11-10T13:26:16.970Z,5.5
2017-11-10T13:28:16.785Z,4.7
2017-11-10T13:30:16.578Z,4.8
2017-11-10T13:32:17.379Z,5
2017-11-10T13:34:17.181Z,5.4
2017-11-10T13:36:18.006Z,4.2
2017-11-10T13:38:16.842Z,4.6
2017-11-10T13:40:17.658Z,4.6
2017-11-10T13:42:17.452Z,4.9
2017-11-10T13:44:17.260Z,4.5
2017-11-10T13:46:17.074Z,4.5
2017-11-10T13:48:16.874Z,4
2017-11-10T13:50:16.672Z,4.5
2017-11-10T13:52:17.473Z,4.1
2017-11-10T13:54:17.280Z,4.2
2017-11-10T13:56:18.097Z,3.7
2017-11-10T13:58:20.868Z,3.6
2017-11-10T14:00:16.681Z,4.3
2017-11-10T14:02:17.476Z,3.6
2017-11-10T14:04:17.293Z,3.7
2017-11-10T14:06:17.091Z,3.7
2017-11-10T14:08:16.884Z,4.1
2017-11-10T14:10:17.689Z,3.9
2017-11-10T14:12:17.492Z,3.8
2017-11-10T14:14:17.287Z,3.5
2017-11-10T14:16:17.086Z,3.4
2017-11-10T14:18:20.888Z,3.6
2017-11-10T14:20:16.697Z,3.7
2017-11-10T14:22:17.496Z,3.7
2017-11-10T14:24:17.306Z,3.7
2017-11-10T14:26:17.109Z,3.6
2017-11-10T14:28:16.909Z,3.2
2017-11-10T14:30:20.692Z,3.1
2017-11-10T14:32:21.482Z,2.6
2017-11-10T14:34:17.308Z,3
2017-11-10T14:36:17.115Z,3.6
2017-11-10T14:38:16.907Z,3
2017-11-10T14:40:17.718Z,3.5
2017-11-10T14:44:17.367Z,3.1
2017-11-10T14:46:17.147Z,2.8
2017-11-10T14:48:16.951Z,2.8
2017-11-10T14:50:16.766Z,3.7
2017-11-10T14:52:20.550Z,2.8
2017-11-10T14:54:17.372Z,3
2017-11-10T14:56:17.182Z,2.9
2017-11-10T14:58:20.976Z,2.7
2017-11-10T15:00:20.785Z,2.6
2017-11-10T15:02:16.598Z,2.6
2017-11-10T15:04:17.406Z,3.5
2017-11-10T15:06:17.221Z,2.9
2017-11-10T15:08:17.020Z,3.2
2017-11-10T15:10:17.821Z,2.7
2017-11-10T15:12:16.633Z,3
2017-11-10T15:14:17.449Z,3.3
2017-11-10T15:16:17.243Z,3.2
2017-11-10T15:18:21.041Z,3.5
2017-11-10T15:20:16.849Z,3.4
2017-11-10T15:22:16.660Z,3
2017-11-10T15:24:17.459Z,3
2017-11-10T15:26:17.270Z,3.7
2017-11-10T15:28:17.094Z,3.5
2017-11-10T15:30:20.868Z,3
2017-11-10T15:32:16.696Z,3.7
2017-11-10T15:34:17.480Z,3.3
2017-11-10T15:36:17.276Z,3
2017-11-10T15:38:17.077Z,2.9
2017-11-10T15:40:17.857Z,2.7
2017-11-10T15:42:16.658Z,3.1
2017-11-10T15:44:17.437Z,2.5
2017-11-10T15:46:18.236Z,3.1
2017-11-10T15:48:17.033Z,2.4
2017-11-10T15:50:17.828Z,2.7
2017-11-10T15:52:16.627Z,2.9
2017-11-10T15:54:17.422Z,2.4
2017-11-10T15:56:18.218Z,2.6
2017-11-10T15:58:17.008Z,2.5
2017-11-10T16:00:16.809Z,2.5
2017-11-10T16:02:16.627Z,2.3
2017-11-10T16:04:17.420Z,2.1
2017-11-10T16:06:18.218Z,2.2
2017-11-10T16:08:17.017Z,2.4
2017-11-10T16:10:17.823Z,2.3
2017-11-10T16:12:16.621Z,2.1
2017-11-10T16:14:17.414Z,2.5
2017-11-10T16:16:17.218Z,2.3
2017-11-10T16:18:21.023Z,2.4
2017-11-10T16:20:16.831Z,2.3
2017-11-10T16:22:16.644Z,2.2
2017-11-10T16:24:17.447Z,1.8
2017-11-10T16:26:17.246Z,2.2
2017-11-10T16:28:17.063Z,1.9
2017-11-10T16:30:17.853Z,2.7
2017-11-10T16:32:16.644Z,1.9
2017-11-10T16:34:17.457Z,2.4
2017-11-10T16:36:17.232Z,2.2
2017-11-10T16:38:17.020Z,2.1
2017-11-10T16:40:17.860Z,2.1
2017-11-10T16:42:20.600Z,2.3
2017-11-10T16:44:17.403Z,2
2017-11-10T16:46:18.193Z,2.2
2017-11-10T16:48:16.990Z,2.2
2017-11-10T16:50:16.781Z,1.7
2017-11-10T16:52:16.582Z,1.8
2017-11-10T16:54:17.369Z,1.6
2017-11-10T16:56:18.153Z,1.6
2017-11-10T16:58:16.942Z,1.7
2017-11-10T17:00:16.733Z,1.8
2017-11-10T17:02:16.509Z,1.8
2017-11-10T17:04:17.295Z,1.9
2017-11-10T17:06:18.097Z,1.7
2017-11-10T17:08:20.853Z,1.8
2017-11-10T17:10:17.653Z,1.6
2017-11-10T17:12:17.450Z,1.7
2017-11-10T17:14:17.229Z,1.4
2017-11-10T17:16:18.011Z,1.6
2017-11-10T17:18:17.768Z,1.4
2017-11-10T17:20:16.554Z,1.6
2017-11-10T17:22:17.343Z,1.9
2017-11-10T17:24:21.089Z,1.4
2017-11-10T17:26:17.886Z,1.7
2017-11-10T17:28:16.664Z,1.3
2017-11-10T17:30:18.422Z,1.4
2017-11-10T17:32:17.208Z,1.5
2017-11-10T17:34:17.972Z,1.5
2017-11-10T17:36:17.747Z,1.6
2017-11-10T17:38:16.560Z,1.5
2017-11-10T17:40:17.354Z,1.6
2017-11-10T17:42:17.155Z,1.2
2017-11-10T17:44:16.934Z,1.5
2017-11-10T17:46:17.718Z,1.5
2017-11-10T17:48:17.497Z,1.1
2017-11-10T17:50:21.275Z,1
2017-11-10T17:52:17.078Z,1.4
2017-11-10T17:54:20.856Z,0.9
2017-11-10T17:56:17.640Z,1.3
2017-11-10T17:58:17.411Z,1.1
2017-11-10T18:00:21.183Z,1.2
2017-11-10T18:02:16.984Z,1.3
2017-11-10T18:04:20.742Z,1
2017-11-10T18:06:17.533Z,1.1
2017-11-10T18:08:21.284Z,1.2
2017-11-10T18:10:17.080Z,1
2017-11-10T18:12:16.856Z,0.8
2017-11-10T18:14:20.609Z,1
2017-11-10T18:16:17.393Z,1
2017-11-10T18:18:18.171Z,0.9
2017-11-10T18:20:20.929Z,1
2017-11-10T18:22:16.732Z,0.7
2017-11-10T18:24:17.502Z,1.1
2017-11-10T18:26:17.274Z,1
2017-11-10T18:28:21.030Z,1
2017-11-10T18:30:16.814Z,1.3
2017-11-10T18:32:16.580Z,0.9
2017-11-10T18:34:17.354Z,1
2017-11-10T18:36:18.123Z,0.9
2017-11-10T18:38:20.873Z,1.3
2017-11-10T18:40:17.650Z,0.9
2017-11-10T18:42:17.406Z,0.8
2017-11-10T18:44:21.166Z,0.6
2017-11-10T18:46:17.940Z,0.9
2017-11-10T18:48:16.723Z,1.1
2017-11-10T18:50:18.464Z,1.1
2017-11-10T18:52:17.241Z,1.2
2017-11-10T18:54:17.995Z,1
2017-11-10T18:56:16.762Z,1.3
2017-11-10T18:58:16.525Z,0.8
2017-11-10T19:00:21.274Z,1
2017-11-10T19:02:17.065Z,1.2
2017-11-10T19:04:20.816Z,1.1
2017-11-10T19:06:17.601Z,1.1
2017-11-10T19:08:17.375Z,1.3
2017-11-10T19:10:17.153Z,1.2
2017-11-10T19:12:20.900Z,1.3
2017-11-10T19:14:20.671Z,1
2017-11-10T19:16:17.464Z,1.5
2017-11-10T19:18:18.236Z,1.4
2017-11-10T19:20:18.023Z,1.6
2017-11-10T19:22:16.829Z,1.3
2017-11-10T19:24:20.586Z,1.5
2017-11-10T19:26:17.408Z,1.9
2017-11-10T19:28:17.193Z,1.1
2017-11-10T19:30:20.974Z,0.9
2017-11-10T19:32:16.774Z,1.1
2017-11-10T19:34:16.561Z,1.1
2017-11-10T19:36:17.349Z,1.4
2017-11-10T19:38:17.130Z,1
2017-11-10T19:40:17.914Z,1.1
2017-11-10T19:42:20.690Z,0.8
2017-11-10T19:44:21.448Z,0.8
2017-11-10T19:46:17.241Z,1.1
2017-11-10T19:48:20.999Z,1.1
2017-11-10T19:50:16.801Z,0.9
2017-11-10T19:52:20.536Z,1.8
2017-11-10T19:54:17.319Z,1
2017-11-10T19:56:17.081Z,1.1
2017-11-10T19:58:16.868Z,0.8
2017-11-10T20:00:17.617Z,0.8
2017-11-10T20:02:17.381Z,0.7
2017-11-10T20:04:21.133Z,0.9
2017-11-10T20:06:16.916Z,1.1
2017-11-10T20:08:20.643Z,0.8
2017-11-10T20:10:17.413Z,0.7
2017-11-10T20:12:17.179Z,0.8
2017-11-10T20:14:17.950Z,0.8
2017-11-10T20:16:17.702Z,1.1
2017-11-10T20:18:17.453Z,1
2017-11-10T20:20:21.199Z,1.2
2017-11-10T20:22:16.979Z,0.9
2017-11-10T20:24:20.727Z,1.5
2017-11-10T20:26:17.494Z,1.6
2017-11-10T20:28:21.278Z,0.9
2017-11-10T20:30:18.028Z,0.5
2017-11-10T20:32:17.749Z,0.8
2017-11-10T20:34:20.496Z,1
2017-11-10T20:36:17.274Z,0.9
2017-11-10T20:38:18.021Z,1.2
2017-11-10T20:40:17.778Z,1.2
2017-11-10T20:42:20.522Z,1.3
2017-11-10T20:44:21.257Z,1
2017-11-10T20:46:17.034Z,0.9
2017-11-10T20:48:20.749Z,1.1
2017-11-10T20:50:20.486Z,1.1
2017-11-10T20:52:17.247Z,1
2017-11-10T20:54:20.971Z,1.2
2017-11-10T20:56:17.736Z,1
2017-11-10T20:58:21.463Z,1.7
2017-11-10T21:00:21.212Z,1.9
2017-11-10T21:02:20.964Z,1.1
2017-11-10T21:04:20.713Z,1.5
2017-11-10T21:06:17.461Z,1.7
2017-11-10T21:08:21.180Z,1.6
2017-11-10T21:10:17.929Z,1.4
2017-11-10T21:12:20.659Z,1
2017-11-10T21:14:21.405Z,1.2
2017-11-10T21:16:17.153Z,1.7
2017-11-10T21:18:17.916Z,1.1
2017-11-10T21:20:17.654Z,1.4
2017-11-10T21:22:21.384Z,1.4
2017-11-10T21:24:21.143Z,1.7
2017-11-10T21:26:16.909Z,1.4
2017-11-10T21:28:20.633Z,1.5
2017-11-10T21:30:21.376Z,1.1
2017-11-10T21:32:17.146Z,1.1
2017-11-10T21:34:17.901Z,1.4
2017-11-10T21:36:17.647Z,1.1
2017-11-10T21:38:21.374Z,1.2
2017-11-10T21:40:17.134Z,1
2017-11-10T21:42:20.875Z,1.9
2017-11-10T21:44:20.629Z,1.4
2017-11-10T21:46:17.396Z,1.1
2017-11-10T21:48:18.127Z,1.4
2017-11-10T21:50:17.875Z,1.2
2017-11-10T21:52:20.609Z,1.1
2017-11-10T21:54:21.350Z,1
2017-11-10T21:56:18.112Z,0.7
2017-11-10T21:58:17.856Z,0.8
2017-11-10T22:00:17.589Z,0.8
2017-11-10T22:02:21.320Z,0.7
2017-11-10T22:04:21.062Z,0.8
2017-11-10T22:06:16.827Z,1
2017-11-10T22:08:20.552Z,0.6
2017-11-10T22:10:17.306Z,0.7
2017-11-10T22:12:21.031Z,1.1
2017-11-10T22:14:20.770Z,0.7
2017-11-10T22:16:17.518Z,0.6
2017-11-10T22:18:18.232Z,0.8
2017-11-10T22:20:17.970Z,1
2017-11-10T22:22:17.704Z,0.8
2017-11-10T22:24:18.429Z,1.2
2017-11-10T22:26:18.154Z,0.7
2017-11-10T22:28:17.885Z,1
2017-11-10T22:30:17.603Z,0.9
2017-11-10T22:32:21.310Z,0.7
2017-11-10T22:34:21.030Z,0.5
2017-11-10T22:36:16.800Z,1
2017-11-10T22:38:17.494Z,1.2
2017-11-10T22:40:17.204Z,1
2017-11-10T22:42:20.913Z,0.7
2017-11-10T22:44:20.634Z,0.9
2017-11-10T22:46:17.370Z,1
2017-11-10T22:48:18.087Z,1.3
2017-11-10T22:50:17.836Z,1.2
2017-11-10T22:52:17.547Z,1.2
2017-11-10T22:54:18.256Z,1.5
2017-11-10T22:56:17.988Z,1
2017-11-10T22:58:17.698Z,1.1
2017-11-10T23:00:18.438Z,0.9
2017-11-10T23:02:21.159Z,1
2017-11-10T23:04:16.923Z,1
2017-11-10T23:06:17.666Z,1.5
2017-11-10T23:08:21.391Z,1.3
2017-11-10T23:10:17.134Z,0.9
2017-11-10T23:12:20.858Z,1
2017-11-10T23:14:20.586Z,0.7
2017-11-10T23:16:17.340Z,1.1
2017-11-10T23:18:18.080Z,1
2017-11-10T23:20:17.818Z,1
2017-11-10T23:22:20.547Z,0.7
2017-11-10T23:24:21.305Z,1.1
2017-11-10T23:26:17.041Z,0.9
2017-11-10T23:28:20.789Z,1
2017-11-10T23:30:17.548Z,1
2017-11-10T23:32:18.294Z,1.4
2017-11-10T23:34:18.078Z,1.3
2017-11-10T23:36:16.782Z,1.4
2017-11-10T23:38:20.506Z,1.3
2017-11-10T23:40:17.250Z,1.2
2017-11-10T23:42:17.981Z,0.8
2017-11-10T23:44:20.709Z,1.3
2017-11-10T23:46:17.473Z,1.1
2017-11-10T23:48:21.201Z,1.4
2017-11-10T23:50:17.941Z,1
2017-11-10T23:52:20.676Z,0.9
2017-11-10T23:54:21.403Z,1
2017-11-10T23:56:17.160Z,0.9
2017-11-10T23:58:20.886Z,1.2
